sensor_id;sensor_type;location;lat;lon;timestamp;pressure;altitude;pressure_sealevel;temperature;humidity
67545;BME280;54380;47.770;11.150;2022-08-02T00:00:50;95150.13;;;20.98;55.78
67545;BME280;54380;47.770;11.150;2022-08-02T00:03:21;95152.75;;;20.81;56.36
67545;BME280;54380;47.770;11.150;2022-08-02T00:05:51;95144.81;;;20.67;56.85
67545;BME280;54380;47.770;11.150;2022-08-02T00:08:19;95135.41;;;20.56;56.95
67545;BME280;54380;47.770;11.150;2022-08-02T00:10:46;95135.81;;;20.49;56.80
67545;BME280;54380;47.770;11.150;2022-08-02T00:13:13;95130.75;;;20.48;56.67
67545;BME280;54380;47.770;11.150;2022-08-02T00:15:39;95127.00;;;20.49;57.71
67545;BME280;54380;47.770;11.150;2022-08-02T00:18:06;95124.91;;;20.46;57.90
67545;BME280;54380;47.770;11.150;2022-08-02T00:20:33;95124.56;;;20.38;57.97
67545;BME280;54380;47.770;11.150;2022-08-02T00:23:01;95117.16;;;20.35;58.16
67545;BME280;54380;47.770;11.150;2022-08-02T00:25:28;95122.19;;;20.37;57.93
67545;BME280;54380;47.770;11.150;2022-08-02T00:27:55;95114.00;;;20.42;57.54
67545;BME280;54380;47.770;11.150;2022-08-02T00:30:21;95117.84;;;20.50;57.29
67545;BME280;54380;47.770;11.150;2022-08-02T00:32:48;95111.94;;;20.61;57.22
67545;BME280;54380;47.770;11.150;2022-08-02T00:35:15;95098.59;;;20.70;56.82
67545;BME280;54380;47.770;11.150;2022-08-02T00:37:42;95102.41;;;20.78;56.56
67545;BME280;54380;47.770;11.150;2022-08-02T00:40:10;95100.38;;;20.83;56.14
67545;BME280;54380;47.770;11.150;2022-08-02T00:42:37;95098.34;;;20.89;56.01
67545;BME280;54380;47.770;11.150;2022-08-02T00:45:05;95095.38;;;20.99;55.86
67545;BME280;54380;47.770;11.150;2022-08-02T00:47:32;95091.63;;;21.09;55.84
67545;BME280;54380;47.770;11.150;2022-08-02T00:49:58;95081.22;;;21.16;55.32
67545;BME280;54380;47.770;11.150;2022-08-02T00:52:25;95079.50;;;21.20;55.56
67545;BME280;54380;47.770;11.150;2022-08-02T00:54:52;95083.75;;;21.21;55.52
67545;BME280;54380;47.770;11.150;2022-08-02T00:57:20;95082.47;;;21.19;55.43
67545;BME280;54380;47.770;11.150;2022-08-02T00:59:46;95090.69;;;21.14;55.51
67545;BME280;54380;47.770;11.150;2022-08-02T01:02:14;95082.47;;;21.10;55.72
67545;BME280;54380;47.770;11.150;2022-08-02T01:04:42;95089.72;;;21.10;55.78
67545;BME280;54380;47.770;11.150;2022-08-02T01:07:08;95086.56;;;21.08;55.37
67545;BME280;54380;47.770;11.150;2022-08-02T01:09:39;95087.84;;;21.10;55.28
67545;BME280;54380;47.770;11.150;2022-08-02T01:12:07;95092.91;;;21.12;55.20
67545;BME280;54380;47.770;11.150;2022-08-02T01:14:36;95093.06;;;21.15;54.99
67545;BME280;54380;47.770;11.150;2022-08-02T01:17:05;95088.19;;;21.17;55.10
67545;BME280;54380;47.770;11.150;2022-08-02T01:19:39;95085.94;;;21.19;55.07
67545;BME280;54380;47.770;11.150;2022-08-02T01:22:20;95079.50;;;21.20;55.10
67545;BME280;54380;47.770;11.150;2022-08-02T01:25:24;95072.72;;;21.23;55.41
67545;BME280;54380;47.770;11.150;2022-08-02T01:28:20;95072.22;;;21.21;54.82
67545;BME280;54380;47.770;11.150;2022-08-02T01:30:56;95076.31;;;21.18;54.83
67545;BME280;54380;47.770;11.150;2022-08-02T01:33:27;95080.59;;;21.19;54.84
67545;BME280;54380;47.770;11.150;2022-08-02T01:35:58;95073.00;;;21.21;54.77
67545;BME280;54380;47.770;11.150;2022-08-02T01:38:32;95073.97;;;21.25;54.83
67545;BME280;54380;47.770;11.150;2022-08-02T01:41:00;95071.78;;;21.27;54.63
67545;BME280;54380;47.770;11.150;2022-08-02T01:43:30;95069.56;;;21.30;54.59
67545;BME280;54380;47.770;11.150;2022-08-02T01:46:00;95061.97;;;21.32;54.30
67545;BME280;54380;47.770;11.150;2022-08-02T01:48:28;95066.22;;;21.33;54.72
67545;BME280;54380;47.770;11.150;2022-08-02T01:50:58;95060.88;;;21.33;54.50
67545;BME280;54380;47.770;11.150;2022-08-02T01:53:26;95062.47;;;21.34;54.33
67545;BME280;54380;47.770;11.150;2022-08-02T01:55:55;95062.13;;;21.35;54.40
67545;BME280;54380;47.770;11.150;2022-08-02T01:58:26;95065.63;;;21.36;54.49
67545;BME280;54380;47.770;11.150;2022-08-02T02:00:57;95066.13;;;21.38;54.67
67545;BME280;54380;47.770;11.150;2022-08-02T02:03:26;95060.44;;;21.39;54.25
67545;BME280;54380;47.770;11.150;2022-08-02T02:05:55;95056.63;;;21.40;54.13
67545;BME280;54380;47.770;11.150;2022-08-02T02:08:25;95049.41;;;21.41;54.34
67545;BME280;54380;47.770;11.150;2022-08-02T02:10:53;95050.00;;;21.38;54.76
67545;BME280;54380;47.770;11.150;2022-08-02T02:13:22;95052.38;;;21.39;54.35
67545;BME280;54380;47.770;11.150;2022-08-02T02:16:03;95058.88;;;21.38;54.85
67545;BME280;54380;47.770;11.150;2022-08-02T02:18:33;95059.66;;;21.39;54.61
67545;BME280;54380;47.770;11.150;2022-08-02T02:21:04;95055.97;;;21.35;54.50
67545;BME280;54380;47.770;11.150;2022-08-02T02:23:32;95059.28;;;21.32;54.61
67545;BME280;54380;47.770;11.150;2022-08-02T02:26:03;95057.41;;;21.32;55.14
67545;BME280;54380;47.770;11.150;2022-08-02T02:28:31;95059.78;;;21.25;55.40
67545;BME280;54380;47.770;11.150;2022-08-02T02:31:04;95065.59;;;21.18;55.21
67545;BME280;54380;47.770;11.150;2022-08-02T02:33:36;95059.59;;;21.13;54.99
67545;BME280;54380;47.770;11.150;2022-08-02T02:36:07;95071.44;;;21.12;54.83
67545;BME280;54380;47.770;11.150;2022-08-02T02:38:35;95065.25;;;21.11;55.00
67545;BME280;54380;47.770;11.150;2022-08-02T02:41:04;95065.72;;;21.13;55.25
67545;BME280;54380;47.770;11.150;2022-08-02T02:43:33;95061.16;;;21.14;55.11
67545;BME280;54380;47.770;11.150;2022-08-02T02:46:04;95064.03;;;21.17;55.57
67545;BME280;54380;47.770;11.150;2022-08-02T02:48:33;95068.91;;;21.15;55.20
67545;BME280;54380;47.770;11.150;2022-08-02T02:51:02;95066.22;;;21.15;55.04
67545;BME280;54380;47.770;11.150;2022-08-02T02:53:29;95068.13;;;21.15;55.18
67545;BME280;54380;47.770;11.150;2022-08-02T02:56:17;95076.47;;;21.13;55.27
67545;BME280;54380;47.770;11.150;2022-08-02T02:58:45;95061.00;;;21.10;55.01
67545;BME280;54380;47.770;11.150;2022-08-02T03:01:14;95071.44;;;21.12;55.07
67545;BME280;54380;47.770;11.150;2022-08-02T03:04:14;95071.09;;;21.13;54.80
67545;BME280;54380;47.770;11.150;2022-08-02T03:06:41;95073.78;;;21.13;54.66
67545;BME280;54380;47.770;11.150;2022-08-02T03:09:09;95073.50;;;21.15;54.78
67545;BME280;54380;47.770;11.150;2022-08-02T03:11:37;95083.25;;;21.11;54.58
67545;BME280;54380;47.770;11.150;2022-08-02T03:14:07;95077.09;;;21.10;55.03
67545;BME280;54380;47.770;11.150;2022-08-02T03:16:42;95073.00;;;21.13;55.21
67545;BME280;54380;47.770;11.150;2022-08-02T03:19:09;95073.00;;;21.13;54.87
67545;BME280;54380;47.770;11.150;2022-08-02T03:21:37;95073.78;;;21.13;55.47
67545;BME280;54380;47.770;11.150;2022-08-02T03:24:04;95080.44;;;21.16;55.07
67545;BME280;54380;47.770;11.150;2022-08-02T03:26:31;95075.06;;;21.16;54.92
67545;BME280;54380;47.770;11.150;2022-08-02T03:28:58;95075.34;;;21.14;54.97
67545;BME280;54380;47.770;11.150;2022-08-02T03:31:26;95069.19;;;21.14;55.05
67545;BME280;54380;47.770;11.150;2022-08-02T03:34:00;95081.84;;;21.13;55.02
67545;BME280;54380;47.770;11.150;2022-08-02T03:36:29;95070.63;;;21.11;54.98
67545;BME280;54380;47.770;11.150;2022-08-02T03:38:58;95075.53;;;21.09;54.74
67545;BME280;54380;47.770;11.150;2022-08-02T03:41:26;95077.72;;;21.07;54.84
67545;BME280;54380;47.770;11.150;2022-08-02T03:43:53;95077.25;;;21.05;54.95
67545;BME280;54380;47.770;11.150;2022-08-02T03:46:21;95089.88;;;21.04;55.10
67545;BME280;54380;47.770;11.150;2022-08-02T03:48:50;95094.47;;;21.04;54.84
67545;BME280;54380;47.770;11.150;2022-08-02T03:51:19;95094.75;;;21.02;54.71
67545;BME280;54380;47.770;11.150;2022-08-02T03:53:47;95089.22;;;20.99;55.21
67545;BME280;54380;47.770;11.150;2022-08-02T03:56:14;95100.41;;;21.01;55.37
67545;BME280;54380;47.770;11.150;2022-08-02T03:58:42;95097.13;;;21.04;55.63
67545;BME280;54380;47.770;11.150;2022-08-02T04:01:14;95095.06;;;21.01;56.08
67545;BME280;54380;47.770;11.150;2022-08-02T04:03:41;95092.69;;;20.91;55.82
67545;BME280;54380;47.770;11.150;2022-08-02T04:06:08;95088.66;;;20.79;55.78
67545;BME280;54380;47.770;11.150;2022-08-02T04:08:36;95087.59;;;20.80;55.85
67545;BME280;54380;47.770;11.150;2022-08-02T04:11:04;95082.22;;;20.80;56.07
67545;BME280;54380;47.770;11.150;2022-08-02T04:13:50;95086.13;;;20.74;55.90
67545;BME280;54380;47.770;11.150;2022-08-02T04:16:26;95094.97;;;20.75;56.43
67545;BME280;54380;47.770;11.150;2022-08-02T04:18:55;95095.41;;;20.68;56.30
67545;BME280;54380;47.770;11.150;2022-08-02T04:21:26;95095.53;;;20.63;56.70
67545;BME280;54380;47.770;11.150;2022-08-02T04:24:16;95097.56;;;20.57;56.93
67545;BME280;54380;47.770;11.150;2022-08-02T04:26:44;95099.25;;;20.53;56.51
67545;BME280;54380;47.770;11.150;2022-08-02T04:29:16;95094.72;;;20.54;56.61
67545;BME280;54380;47.770;11.150;2022-08-02T04:31:43;95097.56;;;20.57;56.58
67545;BME280;54380;47.770;11.150;2022-08-02T04:34:11;95094.59;;;20.59;56.57
67545;BME280;54380;47.770;11.150;2022-08-02T04:36:41;95096.47;;;20.58;56.51
67545;BME280;54380;47.770;11.150;2022-08-02T04:39:09;95097.75;;;20.61;56.40
67545;BME280;54380;47.770;11.150;2022-08-02T04:41:38;95106.28;;;20.63;56.29
67545;BME280;54380;47.770;11.150;2022-08-02T04:44:09;95103.59;;;20.63;56.42
67545;BME280;54380;47.770;11.150;2022-08-02T04:46:36;95110.06;;;20.62;56.38
67545;BME280;54380;47.770;11.150;2022-08-02T04:49:04;95116.38;;;20.66;56.21
67545;BME280;54380;47.770;11.150;2022-08-02T04:51:33;95116.56;;;20.70;56.31
67545;BME280;54380;47.770;11.150;2022-08-02T04:54:04;95126.50;;;20.69;56.60
67545;BME280;54380;47.770;11.150;2022-08-02T04:56:35;95121.44;;;20.68;57.16
67545;BME280;54380;47.770;11.150;2022-08-02T04:59:04;95119.97;;;20.61;57.37
67545;BME280;54380;47.770;11.150;2022-08-02T05:01:31;95116.97;;;20.54;57.22
67545;BME280;54380;47.770;11.150;2022-08-02T05:03:58;95119.75;;;20.49;57.28
67545;BME280;54380;47.770;11.150;2022-08-02T05:06:24;95120.03;;;20.48;57.72
67545;BME280;54380;47.770;11.150;2022-08-02T05:08:51;95119.88;;;20.44;58.26
67545;BME280;54380;47.770;11.150;2022-08-02T05:11:20;95126.13;;;20.39;57.98
67545;BME280;54380;47.770;11.150;2022-08-02T05:13:46;95119.81;;;20.35;58.33
67545;BME280;54380;47.770;11.150;2022-08-02T05:16:26;95116.44;;;20.30;58.31
67545;BME280;54380;47.770;11.150;2022-08-02T05:18:57;95116.94;;;20.32;58.49
67545;BME280;54380;47.770;11.150;2022-08-02T05:21:24;95119.81;;;20.35;58.77
67545;BME280;54380;47.770;11.150;2022-08-02T05:23:51;95120.78;;;20.39;59.04
67545;BME280;54380;47.770;11.150;2022-08-02T05:26:18;95120.16;;;20.43;59.67
67545;BME280;54380;47.770;11.150;2022-08-02T05:28:44;95122.84;;;20.43;59.54
67545;BME280;54380;47.770;11.150;2022-08-02T05:31:11;95133.28;;;20.44;59.25
67545;BME280;54380;47.770;11.150;2022-08-02T05:33:40;95129.34;;;20.50;59.27
67545;BME280;54380;47.770;11.150;2022-08-02T05:36:07;95125.16;;;20.58;59.69
67545;BME280;54380;47.770;11.150;2022-08-02T05:38:35;95125.84;;;20.64;59.58
67545;BME280;54380;47.770;11.150;2022-08-02T05:41:03;95128.09;;;20.70;59.29
67545;BME280;54380;47.770;11.150;2022-08-02T05:43:30;95137.91;;;20.75;59.34
67545;BME280;54380;47.770;11.150;2022-08-02T05:45:56;95134.28;;;20.79;59.78
67545;BME280;54380;47.770;11.150;2022-08-02T05:48:23;95142.03;;;20.81;59.75
67545;BME280;54380;47.770;11.150;2022-08-02T05:51:02;95142.03;;;20.81;60.13
67545;BME280;54380;47.770;11.150;2022-08-02T05:53:36;95151.97;;;20.80;59.95
67545;BME280;54380;47.770;11.150;2022-08-02T05:56:12;95163.47;;;20.81;59.93
67545;BME280;54380;47.770;11.150;2022-08-02T05:58:49;95163.66;;;20.85;59.44
67545;BME280;54380;47.770;11.150;2022-08-02T06:01:21;95161.63;;;20.90;59.74
67545;BME280;54380;47.770;11.150;2022-08-02T06:03:55;95162.56;;;20.86;59.88
67545;BME280;54380;47.770;11.150;2022-08-02T06:06:25;95159.88;;;20.86;60.54
67545;BME280;54380;47.770;11.150;2022-08-02T06:08:57;95157.19;;;20.86;60.65
67545;BME280;54380;47.770;11.150;2022-08-02T06:11:33;95162.09;;;20.92;60.65
67545;BME280;54380;47.770;11.150;2022-08-02T06:14:01;95161.81;;;20.94;60.42
67545;BME280;54380;47.770;11.150;2022-08-02T06:16:29;95157.41;;;20.98;60.33
67545;BME280;54380;47.770;11.150;2022-08-02T06:18:59;95150.81;;;21.04;60.19
67545;BME280;54380;47.770;11.150;2022-08-02T06:21:27;95154.44;;;21.08;59.87
67545;BME280;54380;47.770;11.150;2022-08-02T06:24:16;95165.88;;;21.22;59.85
67545;BME280;54380;47.770;11.150;2022-08-02T06:26:43;95168.97;;;21.38;59.65
67545;BME280;54380;47.770;11.150;2022-08-02T06:29:11;95167.91;;;21.57;60.38
67545;BME280;54380;47.770;11.150;2022-08-02T06:31:40;95172.81;;;21.72;59.33
67545;BME280;54380;47.770;11.150;2022-08-02T06:34:10;95167.31;;;21.86;59.28
67545;BME280;54380;47.770;11.150;2022-08-02T06:36:49;95158.63;;;21.98;58.78
67545;BME280;54380;47.770;11.150;2022-08-02T06:39:20;95154.06;;;22.07;59.12
67545;BME280;54380;47.770;11.150;2022-08-02T06:41:54;95155.59;;;22.17;58.80
67545;BME280;54380;47.770;11.150;2022-08-02T06:44:35;95156.44;;;22.26;58.59
67545;BME280;54380;47.770;11.150;2022-08-02T06:47:18;95147.88;;;22.41;58.20
67545;BME280;54380;47.770;11.150;2022-08-02T06:49:45;95157.38;;;22.47;57.83
67545;BME280;54380;47.770;11.150;2022-08-02T06:52:21;95151.97;;;22.56;57.96
67545;BME280;54380;47.770;11.150;2022-08-02T06:54:54;95143.88;;;22.56;57.26
67545;BME280;54380;47.770;11.150;2022-08-02T06:57:21;95145.94;;;22.59;57.16
67545;BME280;54380;47.770;11.150;2022-08-02T06:59:48;95140.72;;;22.63;57.35
67545;BME280;54380;47.770;11.150;2022-08-02T07:02:15;95146.84;;;22.72;57.48
67545;BME280;54380;47.770;11.150;2022-08-02T07:04:41;95143.50;;;22.84;56.95
67545;BME280;54380;47.770;11.150;2022-08-02T07:07:08;95145.06;;;22.93;56.24
67545;BME280;54380;47.770;11.150;2022-08-02T07:09:36;95146.31;;;23.05;55.24
67545;BME280;54380;47.770;11.150;2022-08-02T07:12:04;95138.84;;;23.10;55.13
67545;BME280;54380;47.770;11.150;2022-08-02T07:14:30;95150.69;;;23.18;54.47
67545;BME280;54380;47.770;11.150;2022-08-02T07:17:01;95138.97;;;23.22;54.43
67545;BME280;54380;47.770;11.150;2022-08-02T07:19:28;95141.09;;;23.38;54.87
67545;BME280;54380;47.770;11.150;2022-08-02T07:22:03;95142.56;;;23.56;54.55
67545;BME280;54380;47.770;11.150;2022-08-02T07:24:30;95143.75;;;23.76;54.19
67545;BME280;54380;47.770;11.150;2022-08-02T07:26:58;95140.94;;;23.94;53.65
67545;BME280;54380;47.770;11.150;2022-08-02T07:29:41;95136.38;;;24.06;52.48
67545;BME280;54380;47.770;11.150;2022-08-02T07:32:13;95132.97;;;24.18;52.79
67545;BME280;54380;47.770;11.150;2022-08-02T07:34:40;95139.66;;;24.33;52.99
67545;BME280;54380;47.770;11.150;2022-08-02T07:37:08;95136.25;;;24.45;52.55
67545;BME280;54380;47.770;11.150;2022-08-02T07:39:55;95131.66;;;24.58;52.13
67545;BME280;54380;47.770;11.150;2022-08-02T07:42:23;95138.00;;;24.74;51.87
67545;BME280;54380;47.770;11.150;2022-08-02T07:44:50;95127.34;;;24.90;51.45
67545;BME280;54380;47.770;11.150;2022-08-02T07:47:17;95139.75;;;25.03;51.06
67545;BME280;54380;47.770;11.150;2022-08-02T07:49:44;95135.03;;;25.12;50.71
67545;BME280;54380;47.770;11.150;2022-08-02T07:52:11;95130.88;;;25.15;50.54
67545;BME280;54380;47.770;11.150;2022-08-02T07:54:38;95129.88;;;25.19;49.59
67545;BME280;54380;47.770;11.150;2022-08-02T07:57:05;95129.00;;;25.28;50.08
67545;BME280;54380;47.770;11.150;2022-08-02T07:59:33;95122.56;;;25.45;49.73
67545;BME280;54380;47.770;11.150;2022-08-02T08:02:00;95125.91;;;25.54;49.96
67545;BME280;54380;47.770;11.150;2022-08-02T08:04:27;95134.81;;;25.67;48.48
67545;BME280;54380;47.770;11.150;2022-08-02T08:06:53;95135.34;;;25.72;47.92
67545;BME280;54380;47.770;11.150;2022-08-02T08:09:21;95139.28;;;25.75;47.92
67545;BME280;54380;47.770;11.150;2022-08-02T08:11:47;95134.78;;;25.79;48.79
67545;BME280;54380;47.770;11.150;2022-08-02T08:14:14;95139.84;;;25.93;48.76
67545;BME280;54380;47.770;11.150;2022-08-02T08:16:43;95131.38;;;26.06;48.50
67545;BME280;54380;47.770;11.150;2022-08-02T08:19:10;95127.06;;;26.18;48.08
67545;BME280;54380;47.770;11.150;2022-08-02T08:21:37;95124.28;;;26.30;46.82
67545;BME280;54380;47.770;11.150;2022-08-02T08:24:04;95125.09;;;26.31;46.97
67545;BME280;54380;47.770;11.150;2022-08-02T08:26:31;95122.94;;;26.36;46.86
67545;BME280;54380;47.770;11.150;2022-08-02T08:28:58;95124.16;;;26.39;47.09
67545;BME280;54380;47.770;11.150;2022-08-02T08:31:24;95125.78;;;26.56;47.31
67545;BME280;54380;47.770;11.150;2022-08-02T08:33:53;95134.31;;;26.70;46.90
67545;BME280;54380;47.770;11.150;2022-08-02T08:36:20;95132.47;;;26.74;46.51
67545;BME280;54380;47.770;11.150;2022-08-02T08:38:47;95123.63;;;26.77;45.95
67545;BME280;54380;47.770;11.150;2022-08-02T08:41:15;95123.88;;;26.72;45.29
67545;BME280;54380;47.770;11.150;2022-08-02T08:43:42;95122.06;;;26.76;45.71
67545;BME280;54380;47.770;11.150;2022-08-02T08:46:10;95118.66;;;26.79;45.28
67545;BME280;54380;47.770;11.150;2022-08-02T08:48:39;95112.28;;;26.87;44.26
67545;BME280;54380;47.770;11.150;2022-08-02T08:51:14;95115.63;;;26.97;44.41
67545;BME280;54380;47.770;11.150;2022-08-02T08:53:42;95123.13;;;27.03;43.60
67545;BME280;54380;47.770;11.150;2022-08-02T08:56:10;95120.16;;;27.08;41.65
67545;BME280;54380;47.770;11.150;2022-08-02T08:58:42;95121.66;;;27.06;41.44
67545;BME280;54380;47.770;11.150;2022-08-02T09:01:11;95111.78;;;26.98;43.08
67545;BME280;54380;47.770;11.150;2022-08-02T09:03:38;95107.31;;;27.05;42.58
67545;BME280;54380;47.770;11.150;2022-08-02T09:06:05;95107.06;;;27.10;41.84
67545;BME280;54380;47.770;11.150;2022-08-02T09:08:33;95103.19;;;27.11;41.97
67545;BME280;54380;47.770;11.150;2022-08-02T09:11:00;95098.56;;;27.12;42.86
67545;BME280;54380;47.770;11.150;2022-08-02T09:13:28;95104.28;;;27.23;43.06
67545;BME280;54380;47.770;11.150;2022-08-02T09:16:11;95104.63;;;27.37;41.95
67545;BME280;54380;47.770;11.150;2022-08-02T09:18:42;95100.94;;;27.45;42.12
67545;BME280;54380;47.770;11.150;2022-08-02T09:21:10;95111.66;;;27.57;42.56
67545;BME280;54380;47.770;11.150;2022-08-02T09:23:40;95105.19;;;27.62;42.83
67545;BME280;54380;47.770;11.150;2022-08-02T09:26:09;95115.56;;;27.76;41.43
67545;BME280;54380;47.770;11.150;2022-08-02T09:28:37;95106.53;;;27.88;41.27
67545;BME280;54380;47.770;11.150;2022-08-02T09:31:06;95117.59;;;27.98;40.28
67545;BME280;54380;47.770;11.150;2022-08-02T09:33:34;95111.16;;;28.07;39.91
67545;BME280;54380;47.770;11.150;2022-08-02T09:36:03;95109.75;;;28.13;40.17
67545;BME280;54380;47.770;11.150;2022-08-02T09:38:34;95108.47;;;28.26;40.28
67545;BME280;54380;47.770;11.150;2022-08-02T09:41:03;95111.75;;;28.35;40.37
67545;BME280;54380;47.770;11.150;2022-08-02T09:43:34;95111.88;;;28.42;41.12
67545;BME280;54380;47.770;11.150;2022-08-02T09:46:12;95106.97;;;28.48;40.71
67545;BME280;54380;47.770;11.150;2022-08-02T09:48:47;95099.50;;;28.64;39.96
67545;BME280;54380;47.770;11.150;2022-08-02T09:51:20;95106.72;;;28.76;40.53
67545;BME280;54380;47.770;11.150;2022-08-02T09:53:49;95104.91;;;28.84;39.49
67545;BME280;54380;47.770;11.150;2022-08-02T09:56:40;95108.53;;;28.92;38.96
67545;BME280;54380;47.770;11.150;2022-08-02T09:59:07;95110.88;;;28.93;39.33
67545;BME280;54380;47.770;11.150;2022-08-02T10:01:34;95107.84;;;28.98;39.31
67545;BME280;54380;47.770;11.150;2022-08-02T10:04:04;95105.00;;;29.10;39.93
67545;BME280;54380;47.770;11.150;2022-08-02T10:06:32;95104.56;;;29.31;39.21
67545;BME280;54380;47.770;11.150;2022-08-02T10:08:59;95102.81;;;29.46;39.81
67545;BME280;54380;47.770;11.150;2022-08-02T10:11:27;95111.25;;;29.64;39.80
67545;BME280;54380;47.770;11.150;2022-08-02T10:13:55;95101.69;;;29.74;39.08
67545;BME280;54380;47.770;11.150;2022-08-02T10:16:23;95095.09;;;29.75;39.13
67545;BME280;54380;47.770;11.150;2022-08-02T10:18:51;95095.97;;;29.83;39.14
67545;BME280;54380;47.770;11.150;2022-08-02T10:21:19;95096.94;;;29.97;38.67
67545;BME280;54380;47.770;11.150;2022-08-02T10:23:48;95086.56;;;30.07;38.65
67545;BME280;54380;47.770;11.150;2022-08-02T10:26:17;95093.63;;;30.11;38.17
67545;BME280;54380;47.770;11.150;2022-08-02T10:28:46;95090.88;;;30.11;37.98
67545;BME280;54380;47.770;11.150;2022-08-02T10:31:16;95094.81;;;30.14;38.42
67545;BME280;54380;47.770;11.150;2022-08-02T10:33:45;95090.69;;;30.24;37.92
67545;BME280;54380;47.770;11.150;2022-08-02T10:36:17;95084.16;;;30.32;38.25
67545;BME280;54380;47.770;11.150;2022-08-02T10:38:45;95078.47;;;30.44;38.07
67545;BME280;54380;47.770;11.150;2022-08-02T10:41:12;95086.00;;;30.58;37.86
67545;BME280;54380;47.770;11.150;2022-08-02T10:43:42;95093.09;;;30.66;38.15
67545;BME280;54380;47.770;11.150;2022-08-02T10:46:29;95081.88;;;30.75;37.64
67545;BME280;54380;47.770;11.150;2022-08-02T10:49:00;95079.19;;;30.78;38.14
67545;BME280;54380;47.770;11.150;2022-08-02T10:52:03;95081.66;;;30.91;37.88
67545;BME280;54380;47.770;11.150;2022-08-02T10:54:34;95078.59;;;30.96;36.94
67545;BME280;54380;47.770;11.150;2022-08-02T10:57:13;95071.94;;;30.93;36.16
67545;BME280;54380;47.770;11.150;2022-08-02T10:59:41;95073.44;;;30.83;36.71
67545;BME280;54380;47.770;11.150;2022-08-02T11:02:10;95072.28;;;30.88;36.51
67545;BME280;54380;47.770;11.150;2022-08-02T11:05:03;95073.53;;;30.98;36.31
67545;BME280;54380;47.770;11.150;2022-08-02T11:07:31;95070.84;;;31.01;35.45
67545;BME280;54380;47.770;11.150;2022-08-02T11:09:59;95075.44;;;30.94;35.75
67545;BME280;54380;47.770;11.150;2022-08-02T11:12:58;95061.88;;;30.97;35.39
67545;BME280;54380;47.770;11.150;2022-08-02T11:15:25;95064.66;;;31.08;35.65
67545;BME280;54380;47.770;11.150;2022-08-02T11:17:56;95069.44;;;31.22;36.03
67545;BME280;54380;47.770;11.150;2022-08-02T11:20:25;95057.84;;;31.32;34.28
67545;BME280;54380;47.770;11.150;2022-08-02T11:22:54;95057.91;;;31.39;35.47
67545;BME280;54380;47.770;11.150;2022-08-02T11:25:33;95056.03;;;31.51;35.09
67545;BME280;54380;47.770;11.150;2022-08-02T11:28:21;95040.91;;;31.60;34.44
67545;BME280;54380;47.770;11.150;2022-08-02T11:30:58;95045.19;;;31.65;33.10
67545;BME280;54380;47.770;11.150;2022-08-02T11:33:33;95039.25;;;31.48;32.81
67545;BME280;54380;47.770;11.150;2022-08-02T11:36:00;95034.88;;;31.37;33.35
67545;BME280;54380;47.770;11.150;2022-08-02T11:38:27;95032.59;;;31.39;33.79
67545;BME280;54380;47.770;11.150;2022-08-02T11:40:54;95027.16;;;31.42;33.39
67545;BME280;54380;47.770;11.150;2022-08-02T11:43:23;95025.13;;;31.36;33.49
67545;BME280;54380;47.770;11.150;2022-08-02T11:45:52;95030.56;;;31.36;34.25
67545;BME280;54380;47.770;11.150;2022-08-02T11:48:33;95020.94;;;31.49;34.10
67545;BME280;54380;47.770;11.150;2022-08-02T11:51:06;95028.41;;;31.59;34.68
67545;BME280;54380;47.770;11.150;2022-08-02T11:53:41;95035.81;;;31.62;34.84
67545;BME280;54380;47.770;11.150;2022-08-02T11:56:09;95033.50;;;31.61;34.37
67545;BME280;54380;47.770;11.150;2022-08-02T11:58:36;95023.75;;;31.60;33.86
67545;BME280;54380;47.770;11.150;2022-08-02T12:01:03;95032.72;;;31.60;34.69
67545;BME280;54380;47.770;11.150;2022-08-02T12:03:38;95042.50;;;31.72;34.79
67545;BME280;54380;47.770;11.150;2022-08-02T12:06:05;95040.59;;;31.80;34.93
67545;BME280;54380;47.770;11.150;2022-08-02T12:08:41;95041.41;;;31.84;33.53
67545;BME280;54380;47.770;11.150;2022-08-02T12:11:20;95040.84;;;31.49;33.79
67545;BME280;54380;47.770;11.150;2022-08-02T12:13:46;95043.50;;;31.39;34.04
67545;BME280;54380;47.770;11.150;2022-08-02T12:16:23;95041.22;;;31.48;33.37
67545;BME280;54380;47.770;11.150;2022-08-02T12:19:12;95039.25;;;31.48;33.54
67545;BME280;54380;47.770;11.150;2022-08-02T12:21:45;95039.63;;;31.43;34.52
67545;BME280;54380;47.770;11.150;2022-08-02T12:24:12;95033.84;;;31.56;34.45
67545;BME280;54380;47.770;11.150;2022-08-02T12:26:43;95037.44;;;31.74;34.66
67545;BME280;54380;47.770;11.150;2022-08-02T12:29:10;95039.44;;;31.88;34.09
67545;BME280;54380;47.770;11.150;2022-08-02T12:31:39;95040.69;;;31.98;33.58
67545;BME280;54380;47.770;11.150;2022-08-02T12:34:25;95033.31;;;32.05;33.98
67545;BME280;54380;47.770;11.150;2022-08-02T12:37:03;95023.97;;;32.10;34.01
67545;BME280;54380;47.770;11.150;2022-08-02T12:39:38;95022.81;;;32.14;32.42
67545;BME280;54380;47.770;11.150;2022-08-02T12:42:07;95017.31;;;32.04;32.53
67545;BME280;54380;47.770;11.150;2022-08-02T12:44:36;95021.59;;;31.98;33.51
67545;BME280;54380;47.770;11.150;2022-08-02T12:47:06;95024.69;;;31.96;33.52
67545;BME280;54380;47.770;11.150;2022-08-02T12:49:34;95022.38;;;31.98;32.76
67545;BME280;54380;47.770;11.150;2022-08-02T12:52:02;95015.00;;;32.02;32.61
67545;BME280;54380;47.770;11.150;2022-08-02T12:54:43;95017.72;;;32.02;33.22
67545;BME280;54380;47.770;11.150;2022-08-02T12:57:11;95015.63;;;31.74;33.35
67545;BME280;54380;47.770;11.150;2022-08-02T12:59:38;95009.22;;;31.41;33.21
67545;BME280;54380;47.770;11.150;2022-08-02T13:02:07;95012.25;;;31.33;34.23
67545;BME280;54380;47.770;11.150;2022-08-02T13:04:35;95008.88;;;31.50;34.45
67545;BME280;54380;47.770;11.150;2022-08-02T13:07:03;95000.34;;;31.59;32.53